sensor_id;sensor_type;location;lat;lon;timestamp;P1;durP1;ratioP1;P2;durP2;ratioP2
19187;SDS011;9726;52.198;8.792;2022-11-20T00:01:15;47.87;;;24.27;;
19187;SDS011;9726;52.198;8.792;2022-11-20T00:03:50;45.87;;;23.93;;
19187;SDS011;9726;52.198;8.792;2022-11-20T00:06:19;46.63;;;23.43;;
19187;SDS011;9726;52.198;8.792;2022-11-20T00:08:46;61.93;;;25.70;;
19187;SDS011;9726;52.198;8.792;2022-11-20T00:11:18;50.60;;;24.30;;
19187;SDS011;9726;52.198;8.792;2022-11-20T00:13:47;55.10;;;23.77;;
19187;SDS011;9726;52.198;8.792;2022-11-20T00:16:16;47.90;;;24.17;;
19187;SDS011;9726;52.198;8.792;2022-11-20T00:18:45;47.10;;;23.13;;
19187;SDS011;9726;52.198;8.792;2022-11-20T00:21:13;54.63;;;23.97;;
19187;SDS011;9726;52.198;8.792;2022-11-20T00:23:43;54.67;;;22.27;;
19187;SDS011;9726;52.198;8.792;2022-11-20T00:26:12;54.17;;;23.43;;
19187;SDS011;9726;52.198;8.792;2022-11-20T00:28:41;54.40;;;22.67;;
19187;SDS011;9726;52.198;8.792;2022-11-20T00:31:13;44.97;;;22.10;;
19187;SDS011;9726;52.198;8.792;2022-11-20T00:33:41;56.43;;;22.83;;
19187;SDS011;9726;52.198;8.792;2022-11-20T00:36:20;46.23;;;21.40;;
19187;SDS011;9726;52.198;8.792;2022-11-20T00:38:52;44.40;;;22.33;;
19187;SDS011;9726;52.198;8.792;2022-11-20T00:41:21;46.00;;;20.53;;
19187;SDS011;9726;52.198;8.792;2022-11-20T00:43:50;40.60;;;20.77;;
19187;SDS011;9726;52.198;8.792;2022-11-20T00:46:20;48.90;;;21.80;;
19187;SDS011;9726;52.198;8.792;2022-11-20T00:48:48;45.40;;;19.73;;
19187;SDS011;9726;52.198;8.792;2022-11-20T00:51:16;51.07;;;22.57;;
19187;SDS011;9726;52.198;8.792;2022-11-20T00:53:45;43.97;;;20.83;;
19187;SDS011;9726;52.198;8.792;2022-11-20T00:56:14;46.60;;;21.10;;
19187;SDS011;9726;52.198;8.792;2022-11-20T00:58:43;41.17;;;21.37;;
19187;SDS011;9726;52.198;8.792;2022-11-20T01:01:16;52.73;;;21.37;;
19187;SDS011;9726;52.198;8.792;2022-11-20T01:03:46;43.50;;;21.30;;
19187;SDS011;9726;52.198;8.792;2022-11-20T01:08:49;44.53;;;21.03;;
19187;SDS011;9726;52.198;8.792;2022-11-20T01:11:18;48.17;;;22.13;;
19187;SDS011;9726;52.198;8.792;2022-11-20T01:13:50;42.63;;;20.07;;
19187;SDS011;9726;52.198;8.792;2022-11-20T01:16:19;47.70;;;21.57;;
19187;SDS011;9726;52.198;8.792;2022-11-20T01:18:48;50.57;;;20.30;;
19187;SDS011;9726;52.198;8.792;2022-11-20T01:21:25;36.07;;;17.67;;
19187;SDS011;9726;52.198;8.792;2022-11-20T01:23:57;38.00;;;18.80;;
19187;SDS011;9726;52.198;8.792;2022-11-20T01:26:26;42.17;;;19.40;;
19187;SDS011;9726;52.198;8.792;2022-11-20T01:28:55;38.67;;;19.60;;
19187;SDS011;9726;52.198;8.792;2022-11-20T01:33:52;40.13;;;19.23;;
19187;SDS011;9726;52.198;8.792;2022-11-20T01:36:21;37.37;;;17.60;;
19187;SDS011;9726;52.198;8.792;2022-11-20T01:38:51;45.50;;;20.13;;
19187;SDS011;9726;52.198;8.792;2022-11-20T01:41:19;46.97;;;20.43;;
19187;SDS011;9726;52.198;8.792;2022-11-20T01:44:06;45.07;;;18.70;;
19187;SDS011;9726;52.198;8.792;2022-11-20T01:46:35;50.17;;;19.90;;
19187;SDS011;9726;52.198;8.792;2022-11-20T01:49:27;44.80;;;19.67;;
19187;SDS011;9726;52.198;8.792;2022-11-20T01:52:01;38.83;;;19.03;;
19187;SDS011;9726;52.198;8.792;2022-11-20T01:54:34;45.00;;;20.77;;
19187;SDS011;9726;52.198;8.792;2022-11-20T01:57:06;40.93;;;21.37;;
19187;SDS011;9726;52.198;8.792;2022-11-20T01:59:37;42.17;;;21.17;;
19187;SDS011;9726;52.198;8.792;2022-11-20T02:02:11;46.83;;;20.20;;
19187;SDS011;9726;52.198;8.792;2022-11-20T02:04:37;52.93;;;23.40;;
19187;SDS011;9726;52.198;8.792;2022-11-20T02:07:05;53.70;;;22.07;;
19187;SDS011;9726;52.198;8.792;2022-11-20T02:09:32;50.03;;;20.07;;
19187;SDS011;9726;52.198;8.792;2022-11-20T02:12:00;43.83;;;20.37;;
19187;SDS011;9726;52.198;8.792;2022-11-20T02:14:27;44.10;;;20.17;;
19187;SDS011;9726;52.198;8.792;2022-11-20T02:16:55;46.80;;;21.30;;
19187;SDS011;9726;52.198;8.792;2022-11-20T02:21:56;41.40;;;20.87;;
19187;SDS011;9726;52.198;8.792;2022-11-20T02:24:31;42.60;;;20.60;;
19187;SDS011;9726;52.198;8.792;2022-11-20T02:27:03;52.30;;;20.53;;
19187;SDS011;9726;52.198;8.792;2022-11-20T02:29:36;44.53;;;21.47;;
19187;SDS011;9726;52.198;8.792;2022-11-20T02:34:46;42.03;;;19.23;;
19187;SDS011;9726;52.198;8.792;2022-11-20T02:37:14;36.57;;;18.57;;
19187;SDS011;9726;52.198;8.792;2022-11-20T02:39:41;43.20;;;18.40;;
19187;SDS011;9726;52.198;8.792;2022-11-20T02:42:09;38.13;;;18.90;;
19187;SDS011;9726;52.198;8.792;2022-11-20T02:44:36;44.03;;;18.87;;
19187;SDS011;9726;52.198;8.792;2022-11-20T02:47:04;41.43;;;18.97;;
19187;SDS011;9726;52.198;8.792;2022-11-20T02:49:31;43.93;;;19.93;;
19187;SDS011;9726;52.198;8.792;2022-11-20T02:51:59;38.77;;;18.23;;
19187;SDS011;9726;52.198;8.792;2022-11-20T02:54:26;42.73;;;17.00;;
19187;SDS011;9726;52.198;8.792;2022-11-20T02:56:54;39.20;;;17.90;;
19187;SDS011;9726;52.198;8.792;2022-11-20T02:59:21;42.53;;;18.17;;
19187;SDS011;9726;52.198;8.792;2022-11-20T03:01:49;34.37;;;16.53;;
19187;SDS011;9726;52.198;8.792;2022-11-20T03:04:16;41.03;;;19.80;;
19187;SDS011;9726;52.198;8.792;2022-11-20T03:07:44;45.53;;;20.30;;
19187;SDS011;9726;52.198;8.792;2022-11-20T03:10:11;56.13;;;20.93;;
19187;SDS011;9726;52.198;8.792;2022-11-20T03:12:39;39.47;;;19.67;;
19187;SDS011;9726;52.198;8.792;2022-11-20T03:15:06;40.07;;;19.93;;
19187;SDS011;9726;52.198;8.792;2022-11-20T03:17:34;41.57;;;19.23;;
19187;SDS011;9726;52.198;8.792;2022-11-20T03:20:01;43.60;;;20.07;;
19187;SDS011;9726;52.198;8.792;2022-11-20T03:22:29;44.17;;;20.10;;
19187;SDS011;9726;52.198;8.792;2022-11-20T03:24:56;46.53;;;20.30;;
19187;SDS011;9726;52.198;8.792;2022-11-20T03:27:24;36.67;;;19.07;;
19187;SDS011;9726;52.198;8.792;2022-11-20T03:29:51;46.40;;;19.73;;
19187;SDS011;9726;52.198;8.792;2022-11-20T03:32:18;44.07;;;21.80;;
19187;SDS011;9726;52.198;8.792;2022-11-20T03:34:45;49.37;;;21.63;;
19187;SDS011;9726;52.198;8.792;2022-11-20T03:37:12;44.90;;;21.60;;
19187;SDS011;9726;52.198;8.792;2022-11-20T03:39:40;43.20;;;21.20;;
19187;SDS011;9726;52.198;8.792;2022-11-20T03:42:08;47.03;;;21.30;;
19187;SDS011;9726;52.198;8.792;2022-11-20T03:44:55;40.27;;;21.50;;
19187;SDS011;9726;52.198;8.792;2022-11-20T03:47:22;45.67;;;21.37;;
19187;SDS011;9726;52.198;8.792;2022-11-20T03:49:50;47.67;;;21.27;;
19187;SDS011;9726;52.198;8.792;2022-11-20T03:52:17;42.50;;;20.57;;
19187;SDS011;9726;52.198;8.792;2022-11-20T03:54:45;46.10;;;21.93;;
19187;SDS011;9726;52.198;8.792;2022-11-20T03:57:12;42.67;;;20.03;;
19187;SDS011;9726;52.198;8.792;2022-11-20T03:59:39;44.07;;;21.40;;
19187;SDS011;9726;52.198;8.792;2022-11-20T04:02:06;45.93;;;20.47;;
19187;SDS011;9726;52.198;8.792;2022-11-20T04:04:34;47.70;;;22.17;;
19187;SDS011;9726;52.198;8.792;2022-11-20T04:07:01;48.53;;;21.20;;
19187;SDS011;9726;52.198;8.792;2022-11-20T04:09:29;45.17;;;20.77;;
19187;SDS011;9726;52.198;8.792;2022-11-20T04:11:56;49.90;;;22.10;;
19187;SDS011;9726;52.198;8.792;2022-11-20T04:14:24;41.90;;;21.23;;
19187;SDS011;9726;52.198;8.792;2022-11-20T04:16:51;46.57;;;22.13;;
19187;SDS011;9726;52.198;8.792;2022-11-20T04:19:18;45.90;;;21.93;;
19187;SDS011;9726;52.198;8.792;2022-11-20T04:21:46;46.97;;;21.80;;
19187;SDS011;9726;52.198;8.792;2022-11-20T04:24:14;43.73;;;21.37;;
19187;SDS011;9726;52.198;8.792;2022-11-20T04:26:41;42.53;;;20.63;;
19187;SDS011;9726;52.198;8.792;2022-11-20T04:29:10;51.47;;;22.10;;
19187;SDS011;9726;52.198;8.792;2022-11-20T04:31:38;38.17;;;19.80;;
19187;SDS011;9726;52.198;8.792;2022-11-20T04:34:06;44.50;;;20.20;;
19187;SDS011;9726;52.198;8.792;2022-11-20T04:36:33;37.97;;;19.63;;
19187;SDS011;9726;52.198;8.792;2022-11-20T04:39:03;40.97;;;19.83;;
19187;SDS011;9726;52.198;8.792;2022-11-20T04:41:32;45.60;;;21.80;;
19187;SDS011;9726;52.198;8.792;2022-11-20T04:44:01;40.77;;;20.53;;
19187;SDS011;9726;52.198;8.792;2022-11-20T04:46:30;39.13;;;19.87;;
19187;SDS011;9726;52.198;8.792;2022-11-20T04:49:02;40.50;;;19.57;;
19187;SDS011;9726;52.198;8.792;2022-11-20T04:51:29;40.77;;;19.73;;
19187;SDS011;9726;52.198;8.792;2022-11-20T04:53:57;43.17;;;20.10;;
19187;SDS011;9726;52.198;8.792;2022-11-20T04:56:24;47.37;;;20.53;;
19187;SDS011;9726;52.198;8.792;2022-11-20T04:58:52;54.57;;;22.23;;
19187;SDS011;9726;52.198;8.792;2022-11-20T05:01:20;49.30;;;21.33;;
19187;SDS011;9726;52.198;8.792;2022-11-20T05:03:49;41.57;;;20.60;;
19187;SDS011;9726;52.198;8.792;2022-11-20T05:06:17;49.80;;;22.33;;
19187;SDS011;9726;52.198;8.792;2022-11-20T05:08:46;45.40;;;22.03;;
19187;SDS011;9726;52.198;8.792;2022-11-20T05:11:15;54.53;;;23.70;;
19187;SDS011;9726;52.198;8.792;2022-11-20T05:13:44;42.23;;;21.33;;
19187;SDS011;9726;52.198;8.792;2022-11-20T05:16:12;51.10;;;22.63;;
19187;SDS011;9726;52.198;8.792;2022-11-20T05:18:41;44.57;;;21.97;;
19187;SDS011;9726;52.198;8.792;2022-11-20T05:21:08;41.60;;;21.87;;
19187;SDS011;9726;52.198;8.792;2022-11-20T05:23:36;43.90;;;20.80;;
19187;SDS011;9726;52.198;8.792;2022-11-20T05:26:05;46.33;;;23.83;;
19187;SDS011;9726;52.198;8.792;2022-11-20T05:28:33;47.37;;;23.63;;
19187;SDS011;9726;52.198;8.792;2022-11-20T05:31:05;46.87;;;21.77;;
19187;SDS011;9726;52.198;8.792;2022-11-20T05:33:34;47.37;;;24.17;;
19187;SDS011;9726;52.198;8.792;2022-11-20T05:36:02;47.03;;;22.17;;
19187;SDS011;9726;52.198;8.792;2022-11-20T05:38:30;48.13;;;23.33;;
19187;SDS011;9726;52.198;8.792;2022-11-20T05:41:05;48.50;;;23.00;;
19187;SDS011;9726;52.198;8.792;2022-11-20T05:43:37;51.53;;;24.60;;
19187;SDS011;9726;52.198;8.792;2022-11-20T05:46:06;51.87;;;24.30;;
19187;SDS011;9726;52.198;8.792;2022-11-20T05:48:34;53.87;;;23.90;;
19187;SDS011;9726;52.198;8.792;2022-11-20T05:51:02;51.57;;;23.87;;
19187;SDS011;9726;52.198;8.792;2022-11-20T05:53:31;57.63;;;25.03;;
19187;SDS011;9726;52.198;8.792;2022-11-20T05:56:09;44.53;;;24.37;;
19187;SDS011;9726;52.198;8.792;2022-11-20T05:58:38;54.60;;;25.53;;
19187;SDS011;9726;52.198;8.792;2022-11-20T06:03:49;45.57;;;22.57;;
19187;SDS011;9726;52.198;8.792;2022-11-20T06:06:17;54.97;;;25.07;;
19187;SDS011;9726;52.198;8.792;2022-11-20T06:08:45;51.77;;;24.50;;
19187;SDS011;9726;52.198;8.792;2022-11-20T06:11:14;47.03;;;22.00;;
19187;SDS011;9726;52.198;8.792;2022-11-20T06:13:42;49.53;;;25.43;;
19187;SDS011;9726;52.198;8.792;2022-11-20T06:16:10;48.73;;;24.80;;
19187;SDS011;9726;52.198;8.792;2022-11-20T06:18:39;51.93;;;24.93;;
19187;SDS011;9726;52.198;8.792;2022-11-20T06:21:11;58.60;;;26.37;;
19187;SDS011;9726;52.198;8.792;2022-11-20T06:23:40;63.93;;;24.50;;
19187;SDS011;9726;52.198;8.792;2022-11-20T06:26:11;50.17;;;24.63;;
19187;SDS011;9726;52.198;8.792;2022-11-20T06:28:41;47.57;;;23.57;;
19187;SDS011;9726;52.198;8.792;2022-11-20T06:31:10;50.47;;;23.87;;
19187;SDS011;9726;52.198;8.792;2022-11-20T06:33:40;46.47;;;23.43;;
19187;SDS011;9726;52.198;8.792;2022-11-20T06:36:07;56.97;;;26.50;;
19187;SDS011;9726;52.198;8.792;2022-11-20T06:38:37;47.83;;;23.50;;
19187;SDS011;9726;52.198;8.792;2022-11-20T06:41:05;49.67;;;25.20;;
19187;SDS011;9726;52.198;8.792;2022-11-20T06:43:37;54.10;;;24.17;;
19187;SDS011;9726;52.198;8.792;2022-11-20T06:46:05;49.53;;;24.07;;
19187;SDS011;9726;52.198;8.792;2022-11-20T06:48:32;56.73;;;24.10;;
19187;SDS011;9726;52.198;8.792;2022-11-20T06:51:00;60.63;;;26.40;;
19187;SDS011;9726;52.198;8.792;2022-11-20T06:53:33;54.90;;;24.87;;
19187;SDS011;9726;52.198;8.792;2022-11-20T06:56:00;51.00;;;25.23;;
19187;SDS011;9726;52.198;8.792;2022-11-20T06:58:29;43.83;;;23.60;;
19187;SDS011;9726;52.198;8.792;2022-11-20T07:01:00;55.63;;;25.57;;
19187;SDS011;9726;52.198;8.792;2022-11-20T07:03:28;52.50;;;25.40;;
19187;SDS011;9726;52.198;8.792;2022-11-20T07:05:56;55.17;;;26.53;;
19187;SDS011;9726;52.198;8.792;2022-11-20T07:08:23;59.67;;;23.87;;
19187;SDS011;9726;52.198;8.792;2022-11-20T07:10:51;55.00;;;24.50;;
19187;SDS011;9726;52.198;8.792;2022-11-20T07:13:18;56.63;;;25.40;;
19187;SDS011;9726;52.198;8.792;2022-11-20T07:15:45;77.70;;;32.78;;
19187;SDS011;9726;52.198;8.792;2022-11-20T07:18:13;49.27;;;26.10;;
19187;SDS011;9726;52.198;8.792;2022-11-20T07:20:40;50.93;;;26.23;;
19187;SDS011;9726;52.198;8.792;2022-11-20T07:23:07;51.73;;;24.43;;
19187;SDS011;9726;52.198;8.792;2022-11-20T07:25:34;50.90;;;23.47;;
19187;SDS011;9726;52.198;8.792;2022-11-20T07:28:02;52.83;;;24.77;;
19187;SDS011;9726;52.198;8.792;2022-11-20T07:30:30;52.67;;;24.77;;
19187;SDS011;9726;52.198;8.792;2022-11-20T07:32:57;39.43;;;20.17;;
19187;SDS011;9726;52.198;8.792;2022-11-20T07:35:24;43.27;;;21.53;;
19187;SDS011;9726;52.198;8.792;2022-11-20T07:37:52;51.37;;;26.53;;
19187;SDS011;9726;52.198;8.792;2022-11-20T07:40:19;153.37;;;27.07;;
19187;SDS011;9726;52.198;8.792;2022-11-20T07:42:50;59.47;;;33.28;;
19187;SDS011;9726;52.198;8.792;2022-11-20T07:45:18;54.27;;;27.50;;
19187;SDS011;9726;52.198;8.792;2022-11-20T07:47:46;50.67;;;24.93;;
19187;SDS011;9726;52.198;8.792;2022-11-20T07:50:13;51.40;;;25.33;;
19187;SDS011;9726;52.198;8.792;2022-11-20T07:52:41;57.17;;;27.40;;
19187;SDS011;9726;52.198;8.792;2022-11-20T07:55:09;60.57;;;27.10;;
19187;SDS011;9726;52.198;8.792;2022-11-20T07:57:36;261.47;;;34.10;;
19187;SDS011;9726;52.198;8.792;2022-11-20T08:00:04;53.40;;;26.30;;
19187;SDS011;9726;52.198;8.792;2022-11-20T08:02:41;56.07;;;26.33;;
19187;SDS011;9726;52.198;8.792;2022-11-20T08:05:08;53.90;;;25.27;;
19187;SDS011;9726;52.198;8.792;2022-11-20T08:07:39;44.70;;;22.53;;
19187;SDS011;9726;52.198;8.792;2022-11-20T08:10:08;47.37;;;24.50;;
19187;SDS011;9726;52.198;8.792;2022-11-20T08:12:43;104.10;;;29.57;;
19187;SDS011;9726;52.198;8.792;2022-11-20T08:15:30;48.97;;;24.13;;
19187;SDS011;9726;52.198;8.792;2022-11-20T08:18:02;54.30;;;23.73;;
19187;SDS011;9726;52.198;8.792;2022-11-20T08:20:54;49.20;;;26.37;;
19187;SDS011;9726;52.198;8.792;2022-11-20T08:23:22;47.50;;;23.87;;
19187;SDS011;9726;52.198;8.792;2022-11-20T08:25:49;45.70;;;25.00;;
19187;SDS011;9726;52.198;8.792;2022-11-20T08:28:17;49.30;;;23.93;;
19187;SDS011;9726;52.198;8.792;2022-11-20T08:30:47;59.03;;;26.03;;
19187;SDS011;9726;52.198;8.792;2022-11-20T08:33:16;52.43;;;25.00;;
19187;SDS011;9726;52.198;8.792;2022-11-20T08:35:44;55.63;;;26.90;;
19187;SDS011;9726;52.198;8.792;2022-11-20T08:38:12;53.43;;;24.57;;
19187;SDS011;9726;52.198;8.792;2022-11-20T08:40:39;45.20;;;25.37;;
19187;SDS011;9726;52.198;8.792;2022-11-20T08:43:07;53.93;;;25.57;;
19187;SDS011;9726;52.198;8.792;2022-11-20T08:45:34;52.23;;;26.87;;
19187;SDS011;9726;52.198;8.792;2022-11-20T08:48:02;51.67;;;28.10;;
19187;SDS011;9726;52.198;8.792;2022-11-20T08:50:30;48.30;;;25.80;;
19187;SDS011;9726;52.198;8.792;2022-11-20T08:53:05;50.73;;;27.90;;
19187;SDS011;9726;52.198;8.792;2022-11-20T08:55:32;50.37;;;27.30;;
19187;SDS011;9726;52.198;8.792;2022-11-20T08:58:05;49.50;;;28.03;;
19187;SDS011;9726;52.198;8.792;2022-11-20T09:00:33;53.97;;;26.77;;
19187;SDS011;9726;52.198;8.792;2022-11-20T09:03:01;53.77;;;28.00;;
19187;SDS011;9726;52.198;8.792;2022-11-20T09:05:28;59.83;;;28.83;;
19187;SDS011;9726;52.198;8.792;2022-11-20T09:07:56;54.43;;;26.63;;
19187;SDS011;9726;52.198;8.792;2022-11-20T09:10:23;55.33;;;27.70;;
19187;SDS011;9726;52.198;8.792;2022-11-20T09:12:51;48.63;;;25.67;;
19187;SDS011;9726;52.198;8.792;2022-11-20T09:15:19;52.87;;;25.97;;
19187;SDS011;9726;52.198;8.792;2022-11-20T09:17:56;57.53;;;26.07;;
19187;SDS011;9726;52.198;8.792;2022-11-20T09:20:26;61.60;;;26.77;;
19187;SDS011;9726;52.198;8.792;2022-11-20T09:22:55;61.30;;;24.83;;
19187;SDS011;9726;52.198;8.792;2022-11-20T09:25:23;57.07;;;25.13;;
19187;SDS011;9726;52.198;8.792;2022-11-20T09:27:57;56.63;;;25.37;;
19187;SDS011;9726;52.198;8.792;2022-11-20T09:30:25;54.13;;;25.90;;
19187;SDS011;9726;52.198;8.792;2022-11-20T09:32:53;52.87;;;25.50;;
19187;SDS011;9726;52.198;8.792;2022-11-20T09:35:20;60.20;;;28.23;;
19187;SDS011;9726;52.198;8.792;2022-11-20T09:37:48;62.40;;;28.27;;
19187;SDS011;9726;52.198;8.792;2022-11-20T09:46:12;59.97;;;29.27;;
19187;SDS011;9726;52.198;8.792;2022-11-20T09:54:53;61.57;;;29.43;;
19187;SDS011;9726;52.198;8.792;2022-11-20T09:57:22;63.33;;;29.87;;
19187;SDS011;9726;52.198;8.792;2022-11-20T09:59:56;68.63;;;30.20;;
19187;SDS011;9726;52.198;8.792;2022-11-20T10:02:40;68.07;;;29.47;;
19187;SDS011;9726;52.198;8.792;2022-11-20T10:05:25;66.10;;;29.70;;
19187;SDS011;9726;52.198;8.792;2022-11-20T10:08:20;77.53;;;31.20;;
19187;SDS011;9726;52.198;8.792;2022-11-20T10:27:41;71.07;;;27.57;;
19187;SDS011;9726;52.198;8.792;2022-11-20T10:30:16;67.20;;;30.80;;
19187;SDS011;9726;52.198;8.792;2022-11-20T10:35:41;57.80;;;28.63;;
19187;SDS011;9726;52.198;8.792;2022-11-20T10:38:22;63.53;;;29.77;;
19187;SDS011;9726;52.198;8.792;2022-11-20T10:41:01;63.77;;;29.73;;
19187;SDS011;9726;52.198;8.792;2022-11-20T10:43:49;56.60;;;27.53;;
19187;SDS011;9726;52.198;8.792;2022-11-20T10:46:28;59.70;;;30.03;;
19187;SDS011;9726;52.198;8.792;2022-11-20T10:49:04;59.23;;;29.10;;
19187;SDS011;9726;52.198;8.792;2022-11-20T10:54:31;53.03;;;28.10;;
19187;SDS011;9726;52.198;8.792;2022-11-20T11:00:12;54.07;;;26.70;;
19187;SDS011;9726;52.198;8.792;2022-11-20T11:02:44;50.13;;;25.50;;
19187;SDS011;9726;52.198;8.792;2022-11-20T11:08:14;38.50;;;22.03;;
19187;SDS011;9726;52.198;8.792;2022-11-20T11:13:28;34.40;;;20.23;;
19187;SDS011;9726;52.198;8.792;2022-11-20T11:15:57;32.10;;;17.13;;
19187;SDS011;9726;52.198;8.792;2022-11-20T11:20:52;27.57;;;16.93;;
19187;SDS011;9726;52.198;8.792;2022-11-20T11:26:05;29.43;;;16.43;;
19187;SDS011;9726;52.198;8.792;2022-11-20T11:28:58;29.23;;;16.93;;
19187;SDS011;9726;52.198;8.792;2022-11-20T11:31:27;27.83;;;16.40;;
19187;SDS011;9726;52.198;8.792;2022-11-20T11:34:05;28.00;;;16.13;;
19187;SDS011;9726;52.198;8.792;2022-11-20T11:36:36;27.67;;;16.43;;
19187;SDS011;9726;52.198;8.792;2022-11-20T11:39:03;28.13;;;16.40;;
19187;SDS011;9726;52.198;8.792;2022-11-20T11:41:33;23.63;;;15.10;;
19187;SDS011;9726;52.198;8.792;2022-11-20T11:44:19;26.30;;;16.27;;
19187;SDS011;9726;52.198;8.792;2022-11-20T11:47:20;27.63;;;14.53;;
19187;SDS011;9726;52.198;8.792;2022-11-20T11:52:58;29.95;;;20.33;;
19187;SDS011;9726;52.198;8.792;2022-11-20T12:00:45;31.10;;;15.27;;
19187;SDS011;9726;52.198;8.792;2022-11-20T12:03:27;28.88;;;17.38;;
19187;SDS011;9726;52.198;8.792;2022-11-20T12:06:03;28.60;;;15.53;;
19187;SDS011;9726;52.198;8.792;2022-11-20T12:14:16;30.13;;;14.67;;
19187;SDS011;9726;52.198;8.792;2022-11-20T12:16:53;24.00;;;13.43;;
19187;SDS011;9726;52.198;8.792;2022-11-20T12:19:22;26.37;;;14.20;;
19187;SDS011;9726;52.198;8.792;2022-11-20T12:30:14;27.27;;;13.37;;
19187;SDS011;9726;52.198;8.792;2022-11-20T12:43:19;23.30;;;14.13;;
19187;SDS011;9726;52.198;8.792;2022-11-20T12:46:27;21.60;;;13.70;;
19187;SDS011;9726;52.198;8.792;2022-11-20T12:57:13;23.67;;;11.93;;
19187;SDS011;9726;52.198;8.792;2022-11-20T13:05:18;22.87;;;10.80;;
19187;SDS011;9726;52.198;8.792;2022-11-20T13:08:08;19.60;;;11.27;;
19187;SDS011;9726;52.198;8.792;2022-11-20T13:19:15;21.70;;;11.87;;
19187;SDS011;9726;52.198;8.792;2022-11-20T13:21:47;19.83;;;12.27;;
19187;SDS011;9726;52.198;8.792;2022-11-20T13:29:43;21.60;;;11.10;;
19187;SDS011;9726;52.198;8.792;2022-11-20T13:32:16;19.23;;;10.70;;
19187;SDS011;9726;52.198;8.792;2022-11-20T13:34:55;19.70;;;9.87;;
19187;SDS011;9726;52.198;8.792;2022-11-20T13:37:28;18.40;;;9.00;;
19187;SDS011;9726;52.198;8.792;2022-11-20T13:45:10;16.97;;;9.40;;
19187;SDS011;9726;52.198;8.792;2022-11-20T13:47:49;13.40;;;8.67;;
19187;SDS011;9726;52.198;8.792;2022-11-20T13:50:17;13.70;;;7.97;;
19187;SDS011;9726;52.198;8.792;2022-11-20T13:52:56;19.37;;;9.40;;
19187;SDS011;9726;52.198;8.792;2022-11-20T13:55:53;14.30;;;8.37;;
19187;SDS011;9726;52.198;8.792;2022-11-20T14:01:29;16.20;;;8.83;;
19187;SDS011;9726;52.198;8.792;2022-11-20T14:03:58;15.80;;;8.10;;
19187;SDS011;9726;52.198;8.792;2022-11-20T14:06:35;17.77;;;9.27;;
19187;SDS011;9726;52.198;8.792;2022-11-20T14:11:54;14.13;;;7.77;;
19187;SDS011;9726;52.198;8.792;2022-11-20T14:14:23;16.33;;;9.27;;
19187;SDS011;9726;52.198;8.792;2022-11-20T14:17:05;13.97;;;8.17;;
19187;SDS011;9726;52.198;8.792;2022-11-20T14:19:43;13.30;;;8.00;;
19187;SDS011;9726;52.198;8.792;2022-11-20T14:22:17;13.33;;;8.13;;
19187;SDS011;9726;52.198;8.792;2022-11-20T14:24:47;14.90;;;7.90;;
19187;SDS011;9726;52.198;8.792;2022-11-20T14:27:16;16.67;;;8.43;;
19187;SDS011;9726;52.198;8.792;2022-11-20T14:29:46;14.83;;;8.00;;
19187;SDS011;9726;52.198;8.792;2022-11-20T14:32:16;16.13;;;8.73;;
19187;SDS011;9726;52.198;8.792;2022-11-20T14:34:45;14.93;;;8.13;;
19187;SDS011;9726;52.198;8.792;2022-11-20T14:37:19;17.07;;;9.37;;
19187;SDS011;9726;52.198;8.792;2022-11-20T14:39:54;16.13;;;9.03;;
19187;SDS011;9726;52.198;8.792;2022-11-20T14:42:23;14.70;;;8.53;;
19187;SDS011;9726;52.198;8.792;2022-11-20T14:44:54;18.23;;;9.70;;
19187;SDS011;9726;52.198;8.792;2022-11-20T14:47:26;17.13;;;9.30;;
19187;SDS011;9726;52.198;8.792;2022-11-20T14:49:56;19.43;;;10.20;;
19187;SDS011;9726;52.198;8.792;2022-11-20T14:52:26;17.93;;;9.97;;
19187;SDS011;9726;52.198;8.792;2022-11-20T14:54:55;22.53;;;10.27;;
19187;SDS011;9726;52.198;8.792;2022-11-20T15:02:42;25.00;;;10.67;;
19187;SDS011;9726;52.198;8.792;2022-11-20T15:05:13;23.17;;;12.33;;
19187;SDS011;9726;52.198;8.792;2022-11-20T15:07:43;26.77;;;13.03;;
19187;SDS011;9726;52.198;8.792;2022-11-20T15:10:24;25.67;;;13.07;;
19187;SDS011;9726;52.198;8.792;2022-11-20T15:12:53;26.23;;;13.93;;
19187;SDS011;9726;52.198;8.792;2022-11-20T15:15:25;27.90;;;13.53;;
19187;SDS011;9726;52.198;8.792;2022-11-20T15:17:54;31.23;;;14.47;;
19187;SDS011;9726;52.198;8.792;2022-11-20T15:20:21;30.03;;;14.83;;
19187;SDS011;9726;52.198;8.792;2022-11-20T15:22:52;37.27;;;14.20;;
19187;SDS011;9726;52.198;8.792;2022-11-20T15:25:20;28.60;;;13.67;;
19187;SDS011;9726;52.198;8.792;2022-11-20T15:27:48;34.00;;;16.70;;
19187;SDS011;9726;52.198;8.792;2022-11-20T15:30:21;34.77;;;17.87;;
19187;SDS011;9726;52.198;8.792;2022-11-20T15:32:48;34.03;;;17.67;;
19187;SDS011;9726;52.198;8.792;2022-11-20T15:35:16;42.67;;;18.53;;
19187;SDS011;9726;52.198;8.792;2022-11-20T15:37:43;41.57;;;19.40;;
19187;SDS011;9726;52.198;8.792;2022-11-20T15:40:11;43.93;;;20.13;;
19187;SDS011;9726;52.198;8.792;2022-11-20T15:42:39;46.67;;;22.17;;
19187;SDS011;9726;52.198;8.792;2022-11-20T15:45:26;40.10;;;18.27;;
19187;SDS011;9726;52.198;8.792;2022-11-20T15:47:57;33.30;;;17.00;;
19187;SDS011;9726;52.198;8.792;2022-11-20T15:50:27;36.23;;;18.00;;
19187;SDS011;9726;52.198;8.792;2022-11-20T15:52:59;30.00;;;16.00;;
19187;SDS011;9726;52.198;8.792;2022-11-20T15:55:27;37.43;;;16.97;;
19187;SDS011;9726;52.198;8.792;2022-11-20T15:57:54;33.57;;;16.17;;
19187;SDS011;9726;52.198;8.792;2022-11-20T16:00:22;38.53;;;18.40;;
19187;SDS011;9726;52.198;8.792;2022-11-20T16:02:49;38.33;;;18.37;;
19187;SDS011;9726;52.198;8.792;2022-11-20T16:05:16;34.53;;;18.10;;
19187;SDS011;9726;52.198;8.792;2022-11-20T16:07:44;33.90;;;16.57;;
19187;SDS011;9726;52.198;8.792;2022-11-20T16:10:11;36.80;;;19.13;;
19187;SDS011;9726;52.198;8.792;2022-11-20T16:12:39;38.83;;;18.03;;
19187;SDS011;9726;52.198;8.792;2022-11-20T16:15:24;33.80;;;16.97;;
19187;SDS011;9726;52.198;8.792;2022-11-20T16:18:11;39.60;;;17.57;;
19187;SDS011;9726;52.198;8.792;2022-11-20T16:20:40;37.83;;;17.33;;
19187;SDS011;9726;52.198;8.792;2022-11-20T16:23:07;35.23;;;16.57;;
19187;SDS011;9726;52.198;8.792;2022-11-20T16:25:34;37.07;;;18.60;;
19187;SDS011;9726;52.198;8.792;2022-11-20T16:28:02;34.80;;;17.97;;
19187;SDS011;9726;52.198;8.792;2022-11-20T16:30:30;38.63;;;17.70;;
19187;SDS011;9726;52.198;8.792;2022-11-20T16:32:59;35.60;;;17.57;;
19187;SDS011;9726;52.198;8.792;2022-11-20T16:35:27;43.73;;;17.90;;
19187;SDS011;9726;52.198;8.792;2022-11-20T16:37:55;34.47;;;18.57;;
19187;SDS011;9726;52.198;8.792;2022-11-20T16:40:22;33.63;;;18.87;;
19187;SDS011;9726;52.198;8.792;2022-11-20T16:42:50;35.80;;;18.57;;
19187;SDS011;9726;52.198;8.792;2022-11-20T16:45:17;38.77;;;18.83;;
19187;SDS011;9726;52.198;8.792;2022-11-20T16:47:52;38.83;;;18.20;;
19187;SDS011;9726;52.198;8.792;2022-11-20T16:50:20;33.97;;;17.00;;
19187;SDS011;9726;52.198;8.792;2022-11-20T16:52:47;36.63;;;18.43;;
19187;SDS011;9726;52.198;8.792;2022-11-20T16:55:15;46.17;;;20.53;;
19187;SDS011;9726;52.198;8.792;2022-11-20T16:57:42;39.40;;;20.07;;
19187;SDS011;9726;52.198;8.792;2022-11-20T17:00:10;37.60;;;18.80;;
19187;SDS011;9726;52.198;8.792;2022-11-20T17:02:37;39.47;;;19.37;;
19187;SDS011;9726;52.198;8.792;2022-11-20T17:05:04;41.70;;;20.40;;
19187;SDS011;9726;52.198;8.792;2022-11-20T17:07:32;39.17;;;19.70;;
19187;SDS011;9726;52.198;8.792;2022-11-20T17:09:59;37.13;;;17.43;;
19187;SDS011;9726;52.198;8.792;2022-11-20T17:12:26;35.77;;;20.57;;
19187;SDS011;9726;52.198;8.792;2022-11-20T17:14:53;38.57;;;18.00;;